Weather History for KFTN - April, 2014

Change the Weather History Date:

Monday, April 14, 2014

  Actual Average (KCOT) Record (KCOT)
Temperature  
Mean Temperature 70 °F -  
Max Temperature 82 °F 82 °F 97 °F (2001)
Min Temperature 57 °F 59 °F 44 °F (2004)
Cooling Degree Days 4    
Growing Degree Days 20 (Base 50)    
Moisture  
Dew Point 49 °F    
Average Humidity 51    
Maximum Humidity 83    
Minimum Humidity 22    
Precipitation  
Precipitation 0.00 in - - ()
Sea Level Pressure  
Sea Level Pressure 29.89 in    
Wind  
Wind Speed 13 mph (NNE)    
Max Wind Speed 33 mph    
Max Gust Speed 47 mph    
Visibility 10 miles    
Events      
Averages and records for this station are not official NWS values.
T = Trace of Precipitation, MM = Missing Value Source: NWS Daily Summary

Daily Weather History Graph

Daily Weather History Graph

Search for Another Location

Airport or City:

Trip Planner

Search our weather history database for the weather conditions in past years. The results will help you decide how hot, cold, wet, or windy it might be!

Date:

Astronomy

Apr. 14, 2014 Rise Set
Actual Time 7:15 AM CDT 8:05 PM CDT
Civil Twilight 6:51 AM CDT 8:29 PM CDT
Nautical Twilight 6:23 AM CDT 8:57 PM CDT
Astronomical Twilight 5:54 AM CDT 9:26 PM CDT
Moon 7:46 PM CDT (4/14) 6:45 AM CDT (4/14)
Length of Visible Light 13h 37m
Length of Day
12h 49m
Full, 100% of the Moon is Illuminated
Apr 14
Full
Apr 15
Full
Apr 22
Last Quarter
Apr 29
New
May 6
First Quarter

Hourly Weather History & Observations

Time (CDT) Temp. Heat Index Dew Point Humidity Pressure Visibility Wind Dir Wind Speed Gust Speed Precip Events Conditions
12:10 AM 82.4 °F 85.4 °F 68.0 °F 62% 29.65 in 10.0 mi SE 13.8 mph 19.6 mph N/A   Overcast
12:30 AM 82.4 °F 85.4 °F 68.0 °F 62% 29.65 in 10.0 mi SE 10.4 mph 20.7 mph N/A   Overcast
12:50 AM 80.6 °F 83.9 °F 69.8 °F 70% 29.66 in 10.0 mi SE 12.7 mph 21.9 mph N/A   Overcast
1:10 AM 80.6 °F 83.9 °F 69.8 °F 70% 29.66 in 10.0 mi SE 13.8 mph 19.6 mph N/A   Overcast
1:30 AM 80.6 °F 83.9 °F 69.8 °F 70% 29.65 in 10.0 mi SSE 12.7 mph 18.4 mph N/A   Overcast
1:50 AM 78.8 °F - 69.8 °F 74% 29.65 in 10.0 mi SSE 13.8 mph 18.4 mph N/A   Overcast
2:10 AM 78.8 °F - 69.8 °F 74% 29.65 in 10.0 mi SSE 9.2 mph - N/A   Overcast
2:30 AM 78.8 °F - 69.8 °F 74% 29.66 in 10.0 mi SSE 5.8 mph - N/A   Overcast
2:50 AM 77.0 °F - 69.8 °F 78% 29.66 in 10.0 mi South 8.1 mph - N/A   Overcast
3:10 AM 77.0 °F - 68.0 °F 74% 29.65 in 10.0 mi SSE 9.2 mph - N/A   Overcast
3:30 AM 77.0 °F - 68.0 °F 74% 29.65 in 10.0 mi SSE 8.1 mph - N/A   Overcast
3:50 AM 77.0 °F - 68.0 °F 74% 29.65 in 10.0 mi SSE 6.9 mph - N/A   Overcast
4:10 AM 77.0 °F - 68.0 °F 74% 29.65 in 10.0 mi SSE 9.2 mph - N/A   Overcast
4:30 AM 75.2 °F - 68.0 °F 78% 29.65 in 10.0 mi SSE 6.9 mph - N/A   Overcast
4:50 AM 75.2 °F - 68.0 °F 78% 29.65 in 10.0 mi SSE 5.8 mph - N/A   Overcast
5:10 AM 75.2 °F - 68.0 °F 78% 29.65 in 10.0 mi SSE 6.9 mph - N/A   Overcast
5:30 AM 73.4 °F - 68.0 °F 83% 29.65 in 10.0 mi SE 8.1 mph - N/A   Overcast
5:50 AM 73.4 °F - 68.0 °F 83% 29.66 in 10.0 mi ESE 3.5 mph - N/A   Overcast
6:10 AM 73.4 °F - 68.0 °F 83% 29.66 in 10.0 mi SE 6.9 mph - N/A   Overcast
6:30 AM 73.4 °F - 68.0 °F 83% 29.67 in 10.0 mi SE 6.9 mph - N/A   Overcast
6:50 AM 73.4 °F - 68.0 °F 83% 29.68 in 10.0 mi ESE 4.6 mph - N/A   Overcast
7:10 AM 73.4 °F - 68.0 °F 83% 29.69 in 10.0 mi SE 3.5 mph - N/A   Overcast
7:30 AM 73.4 °F - 68.0 °F 83% 29.70 in 10.0 mi NE 3.5 mph - N/A   Overcast
7:50 AM 73.4 °F - 68.0 °F 83% 29.72 in 10.0 mi Calm Calm - N/A   Overcast
8:10 AM 75.2 °F - 68.0 °F 78% 29.74 in 10.0 mi Calm Calm - N/A   Overcast
8:30 AM 75.2 °F - 68.0 °F 78% 29.75 in 10.0 mi Calm Calm - N/A   Overcast
8:50 AM 75.2 °F - 68.0 °F 78% 29.76 in 10.0 mi North 3.5 mph - N/A   Overcast
9:10 AM 75.2 °F - 68.0 °F 78% 29.78 in 10.0 mi NW 4.6 mph - N/A   Overcast
9:30 AM 75.2 °F - 69.8 °F 83% 29.79 in 10.0 mi NNW 4.6 mph - N/A   Overcast
9:50 AM 64.4 °F - 53.6 °F 68% 29.85 in 10.0 mi NNW 33.4 mph 43.7 mph N/A   Overcast
10:10 AM 60.8 °F - 46.4 °F 59% 29.88 in 10.0 mi NNW 24.2 mph 43.7 mph N/A   Overcast
10:30 AM 60.8 °F - 42.8 °F 52% 29.90 in 10.0 mi North 31.1 mph 41.4 mph N/A   Overcast
10:50 AM 59.0 °F - 41.0 °F 51% 29.93 in 10.0 mi North 25.3 mph 47.2 mph N/A   Overcast
11:10 AM 59.0 °F - 39.2 °F 48% 29.95 in 10.0 mi North 21.9 mph 34.5 mph N/A   Overcast
11:30 AM 59.0 °F - 37.4 °F 45% 29.97 in 10.0 mi NNW 28.8 mph 43.7 mph N/A   Overcast
11:50 AM 59.0 °F - 37.4 °F 45% 29.99 in 10.0 mi North 17.3 mph 33.4 mph N/A   Overcast
12:10 PM 59.0 °F - 37.4 °F 45% 30.00 in 10.0 mi North 23.0 mph 34.5 mph N/A   Overcast
12:30 PM 59.0 °F - 37.4 °F 45% 30.00 in 10.0 mi North 21.9 mph 29.9 mph N/A   Overcast
12:50 PM 62.6 °F - 37.4 °F 39% 30.00 in 10.0 mi North 26.5 mph 41.4 mph N/A   Overcast
1:10 PM 62.6 °F - 37.4 °F 39% 30.01 in 10.0 mi North 25.3 mph 33.4 mph N/A   Overcast
1:30 PM 64.4 °F - 37.4 °F 37% 30.01 in 10.0 mi North 23.0 mph 40.3 mph N/A   Overcast
1:50 PM 66.2 °F - 37.4 °F 35% 30.01 in 10.0 mi North 21.9 mph 35.7 mph N/A   Overcast
2:10 PM 68.0 °F - 37.4 °F 33% 30.00 in 10.0 mi North 23.0 mph 36.8 mph N/A   Overcast
2:30 PM 69.8 °F - 35.6 °F 28% 30.00 in 10.0 mi NNW 23.0 mph 33.4 mph N/A   Overcast
2:50 PM 71.6 °F - 35.6 °F 27% 29.99 in 10.0 mi North 24.2 mph 35.7 mph N/A   Overcast
3:10 PM 71.6 °F - 35.6 °F 27% 29.99 in 10.0 mi North 23.0 mph 34.5 mph N/A   Overcast
3:30 PM 73.4 °F - 33.8 °F 23% 29.99 in 10.0 mi North 20.7 mph 35.7 mph N/A   Overcast
3:50 PM 73.4 °F - 33.8 °F 23% 29.99 in 10.0 mi NNW 24.2 mph 33.4 mph N/A   Overcast
4:10 PM 73.4 °F - 32.0 °F 22% 30.00 in 10.0 mi North 26.5 mph 35.7 mph N/A   Overcast
4:30 PM 73.4 °F - 32.0 °F 22% 29.99 in 10.0 mi North 19.6 mph 35.7 mph N/A   Overcast
4:50 PM 73.4 °F - 32.0 °F 22% 30.00 in 10.0 mi North 24.2 mph 35.7 mph N/A   Overcast
5:10 PM 73.4 °F - 32.0 °F 22% 30.00 in 10.0 mi North 23.0 mph 35.7 mph N/A   Overcast
5:30 PM 73.4 °F - 32.0 °F 22% 30.00 in 10.0 mi North 24.2 mph 33.4 mph N/A   Overcast
5:50 PM 71.6 °F - 32.0 °F 23% 30.01 in 10.0 mi North 20.7 mph 31.1 mph N/A   Overcast
6:10 PM 71.6 °F - 32.0 °F 23% 30.02 in 10.0 mi North 19.6 mph 32.2 mph N/A   Overcast
6:30 PM 71.6 °F - 32.0 °F 23% 30.03 in 10.0 mi North 19.6 mph 28.8 mph N/A   Overcast
6:50 PM 69.8 °F - 32.0 °F 25% 30.04 in 10.0 mi North 17.3 mph 29.9 mph N/A   Overcast
7:10 PM 69.8 °F - 32.0 °F 25% 30.06 in 10.0 mi North 15.0 mph 31.1 mph N/A   Overcast
7:30 PM 68.0 °F - 30.2 °F 24% 30.07 in 10.0 mi North 18.4 mph 26.5 mph N/A   Overcast
7:50 PM 66.2 °F - 30.2 °F 26% 30.09 in 10.0 mi North 12.7 mph 24.2 mph N/A   Overcast
8:10 PM 66.2 °F - 30.2 °F 26% 30.10 in 10.0 mi North 16.1 mph 23.0 mph N/A   Overcast
8:30 PM 64.4 °F - 30.2 °F 28% 30.12 in 10.0 mi North 12.7 mph 16.1 mph N/A   Overcast
8:50 PM 64.4 °F - 30.2 °F 28% 30.13 in 10.0 mi North 9.2 mph - N/A   Overcast
9:10 PM 62.6 °F - 32.0 °F 32% 30.15 in 10.0 mi North 6.9 mph - N/A   Overcast
9:30 PM 62.6 °F - 32.0 °F 32% 30.17 in 10.0 mi North 8.1 mph - N/A   Overcast
9:50 PM 60.8 °F - 32.0 °F 34% 30.19 in 10.0 mi North 5.8 mph - N/A   Overcast
10:10 PM 60.8 °F - 32.0 °F 34% 30.21 in 10.0 mi North 9.2 mph - N/A   Overcast
10:30 PM 59.0 °F - 32.0 °F 36% 30.22 in 10.0 mi NNE 5.8 mph - N/A   Overcast
11:10 PM 57.2 °F - 32.0 °F 38% 30.25 in 10.0 mi NNE 8.1 mph - N/A   Overcast
11:30 PM 57.2 °F - 32.0 °F 38% 30.26 in 10.0 mi North 6.9 mph - N/A   Overcast